<?xml version="1.0" encoding="UTF-8" standalone="no" ?>
<gpx xmlns="http://www.topografix.com/GPX/1/1" xmlns:xsi="http://www.w3.org/2001/XMLSchema-instance" xsi:schemaLocation="http://www.topografix.com/GPX/1/1 http://www.topografix.com/GPX/1/1/gpx.xsd" version="1.1" creator="VisuGPX - https://www.visugpx.com">
  <metadata>
    <name>Circuit du 07-09-2012</name>
    <desc><![CDATA[Circuit du 07-09-2012]]></desc>
  </metadata>
  <wpt lat="45.38371" lon="3.75153">
    <ele>662.5</ele>
    <name><![CDATA[Start]]></name>
  </wpt>
  <wpt lat="45.38505" lon="3.7561">
    <ele>655.59997558594</ele>
    <name><![CDATA[End]]></name>
  </wpt>
  <trk>
    <name><![CDATA[Circuit du 07-09-2012_1]]></name>
    <trkseg>
      <trkpt lat="45.38371" lon="3.75153">
        <ele>662.5</ele>
        <time>2012-09-07T16:34:42Z</time>
      </trkpt>
      <trkpt lat="45.3837" lon="3.75146">
        <ele>661.59997558594</ele>
        <time>2012-09-07T16:34:48Z</time>
      </trkpt>
      <trkpt lat="45.38369" lon="3.75139">
        <ele>661.70001220703</ele>
        <time>2012-09-07T16:34:51Z</time>
      </trkpt>
      <trkpt lat="45.38367" lon="3.75132">
        <ele>657.79998779297</ele>
        <time>2012-09-07T16:34:57Z</time>
      </trkpt>
      <trkpt lat="45.38365" lon="3.75124">
        <ele>657.79998779297</ele>
        <time>2012-09-07T16:34:58Z</time>
      </trkpt>
      <trkpt lat="45.38364" lon="3.75117">
        <ele>657.70001220703</ele>
        <time>2012-09-07T16:35:01Z</time>
      </trkpt>
      <trkpt lat="45.38362" lon="3.7511">
        <ele>658.90002441406</ele>
        <time>2012-09-07T16:35:03Z</time>
      </trkpt>
      <trkpt lat="45.38368" lon="3.75099">
        <ele>659</ele>
        <time>2012-09-07T16:35:09Z</time>
      </trkpt>
      <trkpt lat="45.38395" lon="3.75095">
        <ele>657.79998779297</ele>
        <time>2012-09-07T16:35:23Z</time>
      </trkpt>
      <trkpt lat="45.38402" lon="3.75098">
        <ele>657.59997558594</ele>
        <time>2012-09-07T16:35:26Z</time>
      </trkpt>
      <trkpt lat="45.38406" lon="3.75101">
        <ele>658.59997558594</ele>
        <time>2012-09-07T16:35:29Z</time>
      </trkpt>
      <trkpt lat="45.3841" lon="3.75105">
        <ele>657.29998779297</ele>
        <time>2012-09-07T16:35:32Z</time>
      </trkpt>
      <trkpt lat="45.38414" lon="3.75111">
        <ele>655.40002441406</ele>
        <time>2012-09-07T16:35:35Z</time>
      </trkpt>
      <trkpt lat="45.38418" lon="3.75114">
        <ele>655.29998779297</ele>
        <time>2012-09-07T16:35:38Z</time>
      </trkpt>
      <trkpt lat="45.38425" lon="3.75121">
        <ele>656.40002441406</ele>
        <time>2012-09-07T16:35:41Z</time>
      </trkpt>
      <trkpt lat="45.38427" lon="3.75127">
        <ele>648.79998779297</ele>
        <time>2012-09-07T16:35:46Z</time>
      </trkpt>
      <trkpt lat="45.38432" lon="3.75132">
        <ele>648.79998779297</ele>
        <time>2012-09-07T16:35:50Z</time>
      </trkpt>
      <trkpt lat="45.38436" lon="3.75136">
        <ele>652.40002441406</ele>
        <time>2012-09-07T16:35:56Z</time>
      </trkpt>
      <trkpt lat="45.38441" lon="3.75136">
        <ele>654.90002441406</ele>
        <time>2012-09-07T16:36:01Z</time>
      </trkpt>
      <trkpt lat="45.38446" lon="3.75134">
        <ele>655</ele>
        <time>2012-09-07T16:36:05Z</time>
      </trkpt>
      <trkpt lat="45.3845" lon="3.75133">
        <ele>656.09997558594</ele>
        <time>2012-09-07T16:36:07Z</time>
      </trkpt>
      <trkpt lat="45.38455" lon="3.7513">
        <ele>656.09997558594</ele>
        <time>2012-09-07T16:36:12Z</time>
      </trkpt>
      <trkpt lat="45.38461" lon="3.75131">
        <ele>657.90002441406</ele>
        <time>2012-09-07T16:36:19Z</time>
      </trkpt>
      <trkpt lat="45.38465" lon="3.75129">
        <ele>653</ele>
        <time>2012-09-07T16:36:26Z</time>
      </trkpt>
      <trkpt lat="45.38471" lon="3.75125">
        <ele>652.5</ele>
        <time>2012-09-07T16:36:31Z</time>
      </trkpt>
      <trkpt lat="45.38477" lon="3.75124">
        <ele>651.09997558594</ele>
        <time>2012-09-07T16:36:35Z</time>
      </trkpt>
      <trkpt lat="45.38486" lon="3.75123">
        <ele>649.59997558594</ele>
        <time>2012-09-07T16:36:40Z</time>
      </trkpt>
      <trkpt lat="45.38494" lon="3.75121">
        <ele>648.79998779297</ele>
        <time>2012-09-07T16:36:46Z</time>
      </trkpt>
      <trkpt lat="45.385" lon="3.7512">
        <ele>649.5</ele>
        <time>2012-09-07T16:36:49Z</time>
      </trkpt>
      <trkpt lat="45.38504" lon="3.75119">
        <ele>646.79998779297</ele>
        <time>2012-09-07T16:36:51Z</time>
      </trkpt>
      <trkpt lat="45.38509" lon="3.75115">
        <ele>643.59997558594</ele>
        <time>2012-09-07T16:36:54Z</time>
      </trkpt>
      <trkpt lat="45.38516" lon="3.75113">
        <ele>642.40002441406</ele>
        <time>2012-09-07T16:36:57Z</time>
      </trkpt>
      <trkpt lat="45.38521" lon="3.75112">
        <ele>642</ele>
        <time>2012-09-07T16:37:00Z</time>
      </trkpt>
      <trkpt lat="45.38526" lon="3.75111">
        <ele>642.70001220703</ele>
        <time>2012-09-07T16:37:03Z</time>
      </trkpt>
      <trkpt lat="45.38531" lon="3.7511">
        <ele>644.70001220703</ele>
        <time>2012-09-07T16:37:05Z</time>
      </trkpt>
      <trkpt lat="45.38541" lon="3.75107">
        <ele>647.90002441406</ele>
        <time>2012-09-07T16:37:09Z</time>
      </trkpt>
      <trkpt lat="45.38547" lon="3.75105">
        <ele>648.79998779297</ele>
        <time>2012-09-07T16:37:11Z</time>
      </trkpt>
      <trkpt lat="45.38551" lon="3.751">
        <ele>645.59997558594</ele>
        <time>2012-09-07T16:37:14Z</time>
      </trkpt>
      <trkpt lat="45.38563" lon="3.75087">
        <ele>643</ele>
        <time>2012-09-07T16:37:22Z</time>
      </trkpt>
      <trkpt lat="45.38587" lon="3.75058">
        <ele>645</ele>
        <time>2012-09-07T16:37:37Z</time>
      </trkpt>
      <trkpt lat="45.38591" lon="3.75052">
        <ele>646</ele>
        <time>2012-09-07T16:37:41Z</time>
      </trkpt>
      <trkpt lat="45.38596" lon="3.75048">
        <ele>647.40002441406</ele>
        <time>2012-09-07T16:37:43Z</time>
      </trkpt>
      <trkpt lat="45.38601" lon="3.7504">
        <ele>651.09997558594</ele>
        <time>2012-09-07T16:37:47Z</time>
      </trkpt>
      <trkpt lat="45.38603" lon="3.75034">
        <ele>651.09997558594</ele>
        <time>2012-09-07T16:37:50Z</time>
      </trkpt>
      <trkpt lat="45.38608" lon="3.7503">
        <ele>652.09997558594</ele>
        <time>2012-09-07T16:37:54Z</time>
      </trkpt>
      <trkpt lat="45.38611" lon="3.75025">
        <ele>651</ele>
        <time>2012-09-07T16:37:58Z</time>
      </trkpt>
      <trkpt lat="45.38619" lon="3.75014">
        <ele>648.29998779297</ele>
        <time>2012-09-07T16:38:06Z</time>
      </trkpt>
      <trkpt lat="45.3863" lon="3.75006">
        <ele>647.70001220703</ele>
        <time>2012-09-07T16:38:15Z</time>
      </trkpt>
      <trkpt lat="45.38636" lon="3.75004">
        <ele>647.20001220703</ele>
        <time>2012-09-07T16:38:20Z</time>
      </trkpt>
      <trkpt lat="45.38639" lon="3.74995">
        <ele>647.59997558594</ele>
        <time>2012-09-07T16:38:27Z</time>
      </trkpt>
      <trkpt lat="45.38645" lon="3.74986">
        <ele>648.90002441406</ele>
        <time>2012-09-07T16:38:37Z</time>
      </trkpt>
      <trkpt lat="45.3865" lon="3.74985">
        <ele>648.09997558594</ele>
        <time>2012-09-07T16:38:41Z</time>
      </trkpt>
      <trkpt lat="45.38655" lon="3.74982">
        <ele>648.40002441406</ele>
        <time>2012-09-07T16:38:44Z</time>
      </trkpt>
      <trkpt lat="45.38661" lon="3.74978">
        <ele>647.29998779297</ele>
        <time>2012-09-07T16:38:47Z</time>
      </trkpt>
      <trkpt lat="45.38665" lon="3.74974">
        <ele>647.70001220703</ele>
        <time>2012-09-07T16:38:49Z</time>
      </trkpt>
      <trkpt lat="45.38669" lon="3.74972">
        <ele>649.29998779297</ele>
        <time>2012-09-07T16:38:51Z</time>
      </trkpt>
      <trkpt lat="45.38674" lon="3.74969">
        <ele>649.70001220703</ele>
        <time>2012-09-07T16:38:53Z</time>
      </trkpt>
      <trkpt lat="45.38685" lon="3.74968">
        <ele>648.20001220703</ele>
        <time>2012-09-07T16:38:59Z</time>
      </trkpt>
      <trkpt lat="45.3869" lon="3.74965">
        <ele>648.59997558594</ele>
        <time>2012-09-07T16:39:03Z</time>
      </trkpt>
      <trkpt lat="45.38724" lon="3.74946">
        <ele>652.20001220703</ele>
        <time>2012-09-07T16:39:20Z</time>
      </trkpt>
      <trkpt lat="45.38731" lon="3.74944">
        <ele>650.29998779297</ele>
        <time>2012-09-07T16:39:24Z</time>
      </trkpt>
      <trkpt lat="45.38735" lon="3.74936">
        <ele>646</ele>
        <time>2012-09-07T16:39:29Z</time>
      </trkpt>
      <trkpt lat="45.38741" lon="3.74928">
        <ele>648.79998779297</ele>
        <time>2012-09-07T16:39:33Z</time>
      </trkpt>
      <trkpt lat="45.38747" lon="3.74925">
        <ele>648.5</ele>
        <time>2012-09-07T16:39:36Z</time>
      </trkpt>
      <trkpt lat="45.38751" lon="3.74924">
        <ele>648.20001220703</ele>
        <time>2012-09-07T16:39:38Z</time>
      </trkpt>
      <trkpt lat="45.38769" lon="3.74906">
        <ele>649.20001220703</ele>
        <time>2012-09-07T16:39:46Z</time>
      </trkpt>
      <trkpt lat="45.38773" lon="3.749">
        <ele>646.90002441406</ele>
        <time>2012-09-07T16:39:52Z</time>
      </trkpt>
      <trkpt lat="45.38784" lon="3.749">
        <ele>647.70001220703</ele>
        <time>2012-09-07T16:39:59Z</time>
      </trkpt>
      <trkpt lat="45.38813" lon="3.74874">
        <ele>638.5</ele>
        <time>2012-09-07T16:40:26Z</time>
      </trkpt>
      <trkpt lat="45.38819" lon="3.74878">
        <ele>637.5</ele>
        <time>2012-09-07T16:40:30Z</time>
      </trkpt>
      <trkpt lat="45.38824" lon="3.74877">
        <ele>639</ele>
        <time>2012-09-07T16:40:38Z</time>
      </trkpt>
      <trkpt lat="45.38831" lon="3.74877">
        <ele>640.29998779297</ele>
        <time>2012-09-07T16:40:48Z</time>
      </trkpt>
      <trkpt lat="45.38835" lon="3.74881">
        <ele>640.09997558594</ele>
        <time>2012-09-07T16:40:50Z</time>
      </trkpt>
      <trkpt lat="45.38841" lon="3.74883">
        <ele>643.79998779297</ele>
        <time>2012-09-07T16:40:54Z</time>
      </trkpt>
      <trkpt lat="45.38845" lon="3.74886">
        <ele>646.09997558594</ele>
        <time>2012-09-07T16:40:59Z</time>
      </trkpt>
      <trkpt lat="45.3885" lon="3.74883">
        <ele>645.5</ele>
        <time>2012-09-07T16:41:03Z</time>
      </trkpt>
      <trkpt lat="45.3887" lon="3.7488">
        <ele>642.09997558594</ele>
        <time>2012-09-07T16:41:13Z</time>
      </trkpt>
      <trkpt lat="45.38876" lon="3.74879">
        <ele>641</ele>
        <time>2012-09-07T16:41:17Z</time>
      </trkpt>
      <trkpt lat="45.38882" lon="3.74875">
        <ele>637.90002441406</ele>
        <time>2012-09-07T16:41:23Z</time>
      </trkpt>
      <trkpt lat="45.38888" lon="3.74874">
        <ele>636.59997558594</ele>
        <time>2012-09-07T16:41:28Z</time>
      </trkpt>
      <trkpt lat="45.38893" lon="3.74875">
        <ele>637.20001220703</ele>
        <time>2012-09-07T16:41:30Z</time>
      </trkpt>
      <trkpt lat="45.38898" lon="3.74875">
        <ele>637.70001220703</ele>
        <time>2012-09-07T16:41:32Z</time>
      </trkpt>
      <trkpt lat="45.38904" lon="3.74875">
        <ele>639</ele>
        <time>2012-09-07T16:41:34Z</time>
      </trkpt>
      <trkpt lat="45.38911" lon="3.74875">
        <ele>639.29998779297</ele>
        <time>2012-09-07T16:41:37Z</time>
      </trkpt>
      <trkpt lat="45.3892" lon="3.74875">
        <ele>640</ele>
        <time>2012-09-07T16:41:40Z</time>
      </trkpt>
      <trkpt lat="45.38926" lon="3.74872">
        <ele>641.29998779297</ele>
        <time>2012-09-07T16:41:42Z</time>
      </trkpt>
      <trkpt lat="45.38931" lon="3.74874">
        <ele>643</ele>
        <time>2012-09-07T16:41:45Z</time>
      </trkpt>
      <trkpt lat="45.38945" lon="3.7487">
        <ele>644.5</ele>
        <time>2012-09-07T16:41:52Z</time>
      </trkpt>
      <trkpt lat="45.38949" lon="3.74876">
        <ele>640.5</ele>
        <time>2012-09-07T16:41:54Z</time>
      </trkpt>
      <trkpt lat="45.3895" lon="3.74869">
        <ele>638.59997558594</ele>
        <time>2012-09-07T16:41:58Z</time>
      </trkpt>
      <trkpt lat="45.38955" lon="3.74876">
        <ele>634.79998779297</ele>
        <time>2012-09-07T16:42:04Z</time>
      </trkpt>
      <trkpt lat="45.3896" lon="3.74873">
        <ele>636.59997558594</ele>
        <time>2012-09-07T16:42:08Z</time>
      </trkpt>
      <trkpt lat="45.38965" lon="3.74869">
        <ele>636.79998779297</ele>
        <time>2012-09-07T16:42:12Z</time>
      </trkpt>
      <trkpt lat="45.38969" lon="3.74869">
        <ele>636.90002441406</ele>
        <time>2012-09-07T16:42:18Z</time>
      </trkpt>
      <trkpt lat="45.38974" lon="3.7487">
        <ele>637.5</ele>
        <time>2012-09-07T16:42:19Z</time>
      </trkpt>
      <trkpt lat="45.38979" lon="3.74869">
        <ele>637.59997558594</ele>
        <time>2012-09-07T16:42:22Z</time>
      </trkpt>
      <trkpt lat="45.38983" lon="3.74868">
        <ele>637.20001220703</ele>
        <time>2012-09-07T16:42:28Z</time>
      </trkpt>
      <trkpt lat="45.38988" lon="3.74869">
        <ele>637</ele>
        <time>2012-09-07T16:42:32Z</time>
      </trkpt>
      <trkpt lat="45.38994" lon="3.74869">
        <ele>638.59997558594</ele>
        <time>2012-09-07T16:42:37Z</time>
      </trkpt>
      <trkpt lat="45.38999" lon="3.74867">
        <ele>639.59997558594</ele>
        <time>2012-09-07T16:42:42Z</time>
      </trkpt>
      <trkpt lat="45.39004" lon="3.74868">
        <ele>640</ele>
        <time>2012-09-07T16:42:44Z</time>
      </trkpt>
      <trkpt lat="45.39013" lon="3.74869">
        <ele>641.29998779297</ele>
        <time>2012-09-07T16:42:48Z</time>
      </trkpt>
      <trkpt lat="45.3902" lon="3.74872">
        <ele>643.70001220703</ele>
        <time>2012-09-07T16:42:51Z</time>
      </trkpt>
      <trkpt lat="45.39029" lon="3.74875">
        <ele>641.90002441406</ele>
        <time>2012-09-07T16:42:56Z</time>
      </trkpt>
      <trkpt lat="45.39035" lon="3.74875">
        <ele>640.20001220703</ele>
        <time>2012-09-07T16:42:59Z</time>
      </trkpt>
      <trkpt lat="45.39041" lon="3.74878">
        <ele>640.70001220703</ele>
        <time>2012-09-07T16:43:02Z</time>
      </trkpt>
      <trkpt lat="45.39049" lon="3.74875">
        <ele>637.59997558594</ele>
        <time>2012-09-07T16:43:06Z</time>
      </trkpt>
      <trkpt lat="45.39053" lon="3.74878">
        <ele>637.20001220703</ele>
        <time>2012-09-07T16:43:08Z</time>
      </trkpt>
      <trkpt lat="45.39059" lon="3.74877">
        <ele>636.5</ele>
        <time>2012-09-07T16:43:10Z</time>
      </trkpt>
      <trkpt lat="45.39064" lon="3.74877">
        <ele>636.59997558594</ele>
        <time>2012-09-07T16:43:13Z</time>
      </trkpt>
      <trkpt lat="45.39086" lon="3.74879">
        <ele>635.79998779297</ele>
        <time>2012-09-07T16:43:21Z</time>
      </trkpt>
      <trkpt lat="45.39091" lon="3.74877">
        <ele>636.20001220703</ele>
        <time>2012-09-07T16:43:26Z</time>
      </trkpt>
      <trkpt lat="45.39097" lon="3.74876">
        <ele>636.20001220703</ele>
        <time>2012-09-07T16:43:28Z</time>
      </trkpt>
      <trkpt lat="45.39102" lon="3.74875">
        <ele>637</ele>
        <time>2012-09-07T16:43:31Z</time>
      </trkpt>
      <trkpt lat="45.39107" lon="3.74874">
        <ele>635.40002441406</ele>
        <time>2012-09-07T16:43:32Z</time>
      </trkpt>
      <trkpt lat="45.39111" lon="3.74869">
        <ele>636.5</ele>
        <time>2012-09-07T16:43:35Z</time>
      </trkpt>
      <trkpt lat="45.39117" lon="3.74868">
        <ele>639.90002441406</ele>
        <time>2012-09-07T16:43:37Z</time>
      </trkpt>
      <trkpt lat="45.39123" lon="3.74865">
        <ele>638.29998779297</ele>
        <time>2012-09-07T16:43:40Z</time>
      </trkpt>
      <trkpt lat="45.39128" lon="3.74865">
        <ele>640.29998779297</ele>
        <time>2012-09-07T16:43:43Z</time>
      </trkpt>
      <trkpt lat="45.39137" lon="3.74859">
        <ele>640.5</ele>
        <time>2012-09-07T16:43:52Z</time>
      </trkpt>
      <trkpt lat="45.39143" lon="3.7486">
        <ele>640.70001220703</ele>
        <time>2012-09-07T16:43:57Z</time>
      </trkpt>
      <trkpt lat="45.39148" lon="3.74859">
        <ele>641.29998779297</ele>
        <time>2012-09-07T16:44:00Z</time>
      </trkpt>
      <trkpt lat="45.39153" lon="3.74856">
        <ele>641.29998779297</ele>
        <time>2012-09-07T16:44:02Z</time>
      </trkpt>
      <trkpt lat="45.39164" lon="3.74853">
        <ele>638.70001220703</ele>
        <time>2012-09-07T16:44:10Z</time>
      </trkpt>
      <trkpt lat="45.39172" lon="3.74854">
        <ele>638.59997558594</ele>
        <time>2012-09-07T16:44:17Z</time>
      </trkpt>
      <trkpt lat="45.39177" lon="3.74853">
        <ele>639.59997558594</ele>
        <time>2012-09-07T16:44:19Z</time>
      </trkpt>
      <trkpt lat="45.39182" lon="3.74854">
        <ele>638.29998779297</ele>
        <time>2012-09-07T16:44:24Z</time>
      </trkpt>
      <trkpt lat="45.39185" lon="3.74861">
        <ele>639.59997558594</ele>
        <time>2012-09-07T16:44:27Z</time>
      </trkpt>
      <trkpt lat="45.39189" lon="3.74866">
        <ele>638.79998779297</ele>
        <time>2012-09-07T16:44:30Z</time>
      </trkpt>
      <trkpt lat="45.3919" lon="3.74875">
        <ele>641.90002441406</ele>
        <time>2012-09-07T16:44:37Z</time>
      </trkpt>
      <trkpt lat="45.39192" lon="3.74883">
        <ele>641.70001220703</ele>
        <time>2012-09-07T16:44:42Z</time>
      </trkpt>
      <trkpt lat="45.39196" lon="3.74891">
        <ele>642.70001220703</ele>
        <time>2012-09-07T16:44:44Z</time>
      </trkpt>
      <trkpt lat="45.39198" lon="3.74898">
        <ele>641.40002441406</ele>
        <time>2012-09-07T16:44:46Z</time>
      </trkpt>
      <trkpt lat="45.39199" lon="3.74904">
        <ele>641.20001220703</ele>
        <time>2012-09-07T16:44:48Z</time>
      </trkpt>
      <trkpt lat="45.39203" lon="3.74909">
        <ele>641</ele>
        <time>2012-09-07T16:44:50Z</time>
      </trkpt>
      <trkpt lat="45.39208" lon="3.74927">
        <ele>640.40002441406</ele>
        <time>2012-09-07T16:44:58Z</time>
      </trkpt>
      <trkpt lat="45.3921" lon="3.74933">
        <ele>638.29998779297</ele>
        <time>2012-09-07T16:45:00Z</time>
      </trkpt>
      <trkpt lat="45.39212" lon="3.7494">
        <ele>639.90002441406</ele>
        <time>2012-09-07T16:45:03Z</time>
      </trkpt>
      <trkpt lat="45.39214" lon="3.74948">
        <ele>641.70001220703</ele>
        <time>2012-09-07T16:45:06Z</time>
      </trkpt>
      <trkpt lat="45.39215" lon="3.74955">
        <ele>643.20001220703</ele>
        <time>2012-09-07T16:45:08Z</time>
      </trkpt>
      <trkpt lat="45.39213" lon="3.74974">
        <ele>646.09997558594</ele>
        <time>2012-09-07T16:45:14Z</time>
      </trkpt>
      <trkpt lat="45.39214" lon="3.74983">
        <ele>647.5</ele>
        <time>2012-09-07T16:45:17Z</time>
      </trkpt>
      <trkpt lat="45.39213" lon="3.74989">
        <ele>647</ele>
        <time>2012-09-07T16:45:19Z</time>
      </trkpt>
      <trkpt lat="45.39212" lon="3.74998">
        <ele>647.79998779297</ele>
        <time>2012-09-07T16:45:22Z</time>
      </trkpt>
      <trkpt lat="45.39212" lon="3.75008">
        <ele>647.40002441406</ele>
        <time>2012-09-07T16:45:25Z</time>
      </trkpt>
      <trkpt lat="45.39211" lon="3.75015">
        <ele>648.09997558594</ele>
        <time>2012-09-07T16:45:27Z</time>
      </trkpt>
      <trkpt lat="45.3921" lon="3.75031">
        <ele>647</ele>
        <time>2012-09-07T16:45:33Z</time>
      </trkpt>
      <trkpt lat="45.3921" lon="3.7504">
        <ele>647.40002441406</ele>
        <time>2012-09-07T16:45:36Z</time>
      </trkpt>
      <trkpt lat="45.39209" lon="3.75048">
        <ele>647.40002441406</ele>
        <time>2012-09-07T16:45:39Z</time>
      </trkpt>
      <trkpt lat="45.39209" lon="3.75055">
        <ele>645.79998779297</ele>
        <time>2012-09-07T16:45:42Z</time>
      </trkpt>
      <trkpt lat="45.3921" lon="3.75063">
        <ele>645.90002441406</ele>
        <time>2012-09-07T16:45:48Z</time>
      </trkpt>
      <trkpt lat="45.3921" lon="3.7507">
        <ele>645.09997558594</ele>
        <time>2012-09-07T16:45:50Z</time>
      </trkpt>
      <trkpt lat="45.3921" lon="3.75077">
        <ele>645.20001220703</ele>
        <time>2012-09-07T16:45:54Z</time>
      </trkpt>
      <trkpt lat="45.39209" lon="3.75083">
        <ele>646.09997558594</ele>
        <time>2012-09-07T16:45:58Z</time>
      </trkpt>
      <trkpt lat="45.39211" lon="3.75089">
        <ele>645.79998779297</ele>
        <time>2012-09-07T16:46:02Z</time>
      </trkpt>
      <trkpt lat="45.39209" lon="3.75099">
        <ele>644.5</ele>
        <time>2012-09-07T16:46:11Z</time>
      </trkpt>
      <trkpt lat="45.39211" lon="3.75105">
        <ele>644.09997558594</ele>
        <time>2012-09-07T16:46:15Z</time>
      </trkpt>
      <trkpt lat="45.3921" lon="3.75113">
        <ele>644.20001220703</ele>
        <time>2012-09-07T16:46:18Z</time>
      </trkpt>
      <trkpt lat="45.39211" lon="3.7512">
        <ele>643.90002441406</ele>
        <time>2012-09-07T16:46:22Z</time>
      </trkpt>
      <trkpt lat="45.3921" lon="3.75127">
        <ele>643.20001220703</ele>
        <time>2012-09-07T16:46:27Z</time>
      </trkpt>
      <trkpt lat="45.39211" lon="3.75134">
        <ele>641.40002441406</ele>
        <time>2012-09-07T16:46:31Z</time>
      </trkpt>
      <trkpt lat="45.39211" lon="3.75142">
        <ele>638.09997558594</ele>
        <time>2012-09-07T16:46:35Z</time>
      </trkpt>
      <trkpt lat="45.39211" lon="3.75149">
        <ele>637.79998779297</ele>
        <time>2012-09-07T16:46:38Z</time>
      </trkpt>
      <trkpt lat="45.3921" lon="3.75157">
        <ele>640.5</ele>
        <time>2012-09-07T16:46:43Z</time>
      </trkpt>
      <trkpt lat="45.39211" lon="3.75163">
        <ele>641.29998779297</ele>
        <time>2012-09-07T16:46:45Z</time>
      </trkpt>
      <trkpt lat="45.39212" lon="3.75172">
        <ele>640.79998779297</ele>
        <time>2012-09-07T16:46:48Z</time>
      </trkpt>
      <trkpt lat="45.39214" lon="3.7518">
        <ele>642.20001220703</ele>
        <time>2012-09-07T16:46:51Z</time>
      </trkpt>
      <trkpt lat="45.39216" lon="3.75188">
        <ele>643</ele>
        <time>2012-09-07T16:46:54Z</time>
      </trkpt>
      <trkpt lat="45.39217" lon="3.75195">
        <ele>642.59997558594</ele>
        <time>2012-09-07T16:46:56Z</time>
      </trkpt>
      <trkpt lat="45.3922" lon="3.75203">
        <ele>641.29998779297</ele>
        <time>2012-09-07T16:47:00Z</time>
      </trkpt>
      <trkpt lat="45.39221" lon="3.75209">
        <ele>640.79998779297</ele>
        <time>2012-09-07T16:47:02Z</time>
      </trkpt>
      <trkpt lat="45.39224" lon="3.75218">
        <ele>640.70001220703</ele>
        <time>2012-09-07T16:47:05Z</time>
      </trkpt>
      <trkpt lat="45.39225" lon="3.75226">
        <ele>639</ele>
        <time>2012-09-07T16:47:08Z</time>
      </trkpt>
      <trkpt lat="45.39228" lon="3.75235">
        <ele>640.29998779297</ele>
        <time>2012-09-07T16:47:11Z</time>
      </trkpt>
      <trkpt lat="45.3923" lon="3.75243">
        <ele>640.29998779297</ele>
        <time>2012-09-07T16:47:14Z</time>
      </trkpt>
      <trkpt lat="45.39232" lon="3.75251">
        <ele>638.29998779297</ele>
        <time>2012-09-07T16:47:17Z</time>
      </trkpt>
      <trkpt lat="45.39233" lon="3.75258">
        <ele>638.70001220703</ele>
        <time>2012-09-07T16:47:19Z</time>
      </trkpt>
      <trkpt lat="45.39235" lon="3.75265">
        <ele>638.09997558594</ele>
        <time>2012-09-07T16:47:22Z</time>
      </trkpt>
      <trkpt lat="45.39238" lon="3.75275">
        <ele>638.79998779297</ele>
        <time>2012-09-07T16:47:25Z</time>
      </trkpt>
      <trkpt lat="45.39239" lon="3.75283">
        <ele>638.5</ele>
        <time>2012-09-07T16:47:28Z</time>
      </trkpt>
      <trkpt lat="45.3924" lon="3.75292">
        <ele>638.09997558594</ele>
        <time>2012-09-07T16:47:31Z</time>
      </trkpt>
      <trkpt lat="45.3924" lon="3.75299">
        <ele>638</ele>
        <time>2012-09-07T16:47:34Z</time>
      </trkpt>
      <trkpt lat="45.39241" lon="3.75309">
        <ele>639.40002441406</ele>
        <time>2012-09-07T16:47:37Z</time>
      </trkpt>
      <trkpt lat="45.39241" lon="3.75316">
        <ele>639.90002441406</ele>
        <time>2012-09-07T16:47:39Z</time>
      </trkpt>
      <trkpt lat="45.39242" lon="3.75324">
        <ele>639.79998779297</ele>
        <time>2012-09-07T16:47:42Z</time>
      </trkpt>
      <trkpt lat="45.3924" lon="3.7533">
        <ele>639.59997558594</ele>
        <time>2012-09-07T16:47:45Z</time>
      </trkpt>
      <trkpt lat="45.39242" lon="3.75337">
        <ele>641.09997558594</ele>
        <time>2012-09-07T16:47:50Z</time>
      </trkpt>
      <trkpt lat="45.39242" lon="3.75344">
        <ele>642.40002441406</ele>
        <time>2012-09-07T16:47:54Z</time>
      </trkpt>
      <trkpt lat="45.39243" lon="3.75357">
        <ele>642.5</ele>
        <time>2012-09-07T16:48:00Z</time>
      </trkpt>
      <trkpt lat="45.39242" lon="3.75366">
        <ele>642.40002441406</ele>
        <time>2012-09-07T16:48:06Z</time>
      </trkpt>
      <trkpt lat="45.39242" lon="3.75373">
        <ele>642.79998779297</ele>
        <time>2012-09-07T16:48:09Z</time>
      </trkpt>
      <trkpt lat="45.39242" lon="3.75379">
        <ele>642.70001220703</ele>
        <time>2012-09-07T16:48:14Z</time>
      </trkpt>
      <trkpt lat="45.39242" lon="3.75386">
        <ele>640.90002441406</ele>
        <time>2012-09-07T16:48:20Z</time>
      </trkpt>
      <trkpt lat="45.39241" lon="3.75394">
        <ele>641.59997558594</ele>
        <time>2012-09-07T16:48:23Z</time>
      </trkpt>
      <trkpt lat="45.3924" lon="3.75402">
        <ele>641.5</ele>
        <time>2012-09-07T16:48:27Z</time>
      </trkpt>
      <trkpt lat="45.3924" lon="3.75409">
        <ele>641.90002441406</ele>
        <time>2012-09-07T16:48:32Z</time>
      </trkpt>
      <trkpt lat="45.39241" lon="3.75415">
        <ele>643</ele>
        <time>2012-09-07T16:48:36Z</time>
      </trkpt>
      <trkpt lat="45.39241" lon="3.75423">
        <ele>644.20001220703</ele>
        <time>2012-09-07T16:48:40Z</time>
      </trkpt>
      <trkpt lat="45.39241" lon="3.75431">
        <ele>645.79998779297</ele>
        <time>2012-09-07T16:48:44Z</time>
      </trkpt>
      <trkpt lat="45.39241" lon="3.7544">
        <ele>646.20001220703</ele>
        <time>2012-09-07T16:48:47Z</time>
      </trkpt>
      <trkpt lat="45.39241" lon="3.75447">
        <ele>646.90002441406</ele>
        <time>2012-09-07T16:48:49Z</time>
      </trkpt>
      <trkpt lat="45.39241" lon="3.75453">
        <ele>647</ele>
        <time>2012-09-07T16:48:51Z</time>
      </trkpt>
      <trkpt lat="45.39241" lon="3.7546">
        <ele>647.20001220703</ele>
        <time>2012-09-07T16:48:53Z</time>
      </trkpt>
      <trkpt lat="45.39239" lon="3.75467">
        <ele>646.90002441406</ele>
        <time>2012-09-07T16:48:55Z</time>
      </trkpt>
      <trkpt lat="45.39236" lon="3.75488">
        <ele>645.5</ele>
        <time>2012-09-07T16:49:02Z</time>
      </trkpt>
      <trkpt lat="45.39236" lon="3.75495">
        <ele>645.79998779297</ele>
        <time>2012-09-07T16:49:04Z</time>
      </trkpt>
      <trkpt lat="45.39236" lon="3.75504">
        <ele>645</ele>
        <time>2012-09-07T16:49:07Z</time>
      </trkpt>
      <trkpt lat="45.39235" lon="3.75511">
        <ele>646</ele>
        <time>2012-09-07T16:49:09Z</time>
      </trkpt>
      <trkpt lat="45.39234" lon="3.75518">
        <ele>646.5</ele>
        <time>2012-09-07T16:49:12Z</time>
      </trkpt>
      <trkpt lat="45.39234" lon="3.75525">
        <ele>646.59997558594</ele>
        <time>2012-09-07T16:49:14Z</time>
      </trkpt>
      <trkpt lat="45.39233" lon="3.75532">
        <ele>647.40002441406</ele>
        <time>2012-09-07T16:49:16Z</time>
      </trkpt>
      <trkpt lat="45.39232" lon="3.7554">
        <ele>647.5</ele>
        <time>2012-09-07T16:49:19Z</time>
      </trkpt>
      <trkpt lat="45.39231" lon="3.7555">
        <ele>648.09997558594</ele>
        <time>2012-09-07T16:49:22Z</time>
      </trkpt>
      <trkpt lat="45.39226" lon="3.75572">
        <ele>649.5</ele>
        <time>2012-09-07T16:49:29Z</time>
      </trkpt>
      <trkpt lat="45.39224" lon="3.75578">
        <ele>650.79998779297</ele>
        <time>2012-09-07T16:49:31Z</time>
      </trkpt>
      <trkpt lat="45.39216" lon="3.756">
        <ele>652.20001220703</ele>
        <time>2012-09-07T16:49:40Z</time>
      </trkpt>
      <trkpt lat="45.39218" lon="3.75607">
        <ele>652.40002441406</ele>
        <time>2012-09-07T16:49:45Z</time>
      </trkpt>
      <trkpt lat="45.3922" lon="3.75613">
        <ele>651.90002441406</ele>
        <time>2012-09-07T16:49:51Z</time>
      </trkpt>
      <trkpt lat="45.39218" lon="3.75621">
        <ele>651.70001220703</ele>
        <time>2012-09-07T16:49:55Z</time>
      </trkpt>
      <trkpt lat="45.39217" lon="3.75628">
        <ele>650.59997558594</ele>
        <time>2012-09-07T16:49:59Z</time>
      </trkpt>
      <trkpt lat="45.39217" lon="3.75639">
        <ele>649.79998779297</ele>
        <time>2012-09-07T16:50:05Z</time>
      </trkpt>
      <trkpt lat="45.39217" lon="3.75646">
        <ele>648.20001220703</ele>
        <time>2012-09-07T16:50:11Z</time>
      </trkpt>
      <trkpt lat="45.39215" lon="3.75653">
        <ele>649</ele>
        <time>2012-09-07T16:50:13Z</time>
      </trkpt>
      <trkpt lat="45.39212" lon="3.75658">
        <ele>650</ele>
        <time>2012-09-07T16:50:18Z</time>
      </trkpt>
      <trkpt lat="45.39212" lon="3.75665">
        <ele>649.5</ele>
        <time>2012-09-07T16:50:24Z</time>
      </trkpt>
      <trkpt lat="45.39211" lon="3.75672">
        <ele>649.59997558594</ele>
        <time>2012-09-07T16:50:28Z</time>
      </trkpt>
      <trkpt lat="45.39211" lon="3.75679">
        <ele>649.59997558594</ele>
        <time>2012-09-07T16:50:31Z</time>
      </trkpt>
      <trkpt lat="45.39208" lon="3.75686">
        <ele>649.79998779297</ele>
        <time>2012-09-07T16:50:34Z</time>
      </trkpt>
      <trkpt lat="45.3921" lon="3.75694">
        <ele>647.70001220703</ele>
        <time>2012-09-07T16:50:40Z</time>
      </trkpt>
      <trkpt lat="45.39206" lon="3.75705">
        <ele>648.70001220703</ele>
        <time>2012-09-07T16:50:45Z</time>
      </trkpt>
      <trkpt lat="45.39205" lon="3.75714">
        <ele>649.59997558594</ele>
        <time>2012-09-07T16:50:48Z</time>
      </trkpt>
      <trkpt lat="45.39207" lon="3.75731">
        <ele>647.20001220703</ele>
        <time>2012-09-07T16:50:56Z</time>
      </trkpt>
      <trkpt lat="45.39212" lon="3.75738">
        <ele>645.79998779297</ele>
        <time>2012-09-07T16:51:00Z</time>
      </trkpt>
      <trkpt lat="45.39214" lon="3.75751">
        <ele>646.20001220703</ele>
        <time>2012-09-07T16:51:04Z</time>
      </trkpt>
      <trkpt lat="45.39214" lon="3.75759">
        <ele>646</ele>
        <time>2012-09-07T16:51:06Z</time>
      </trkpt>
      <trkpt lat="45.39212" lon="3.75765">
        <ele>646.40002441406</ele>
        <time>2012-09-07T16:51:08Z</time>
      </trkpt>
      <trkpt lat="45.3921" lon="3.75774">
        <ele>646.5</ele>
        <time>2012-09-07T16:51:11Z</time>
      </trkpt>
      <trkpt lat="45.39211" lon="3.75781">
        <ele>643.79998779297</ele>
        <time>2012-09-07T16:51:14Z</time>
      </trkpt>
      <trkpt lat="45.39209" lon="3.7579">
        <ele>645.70001220703</ele>
        <time>2012-09-07T16:51:17Z</time>
      </trkpt>
      <trkpt lat="45.39209" lon="3.75797">
        <ele>647</ele>
        <time>2012-09-07T16:51:19Z</time>
      </trkpt>
      <trkpt lat="45.39206" lon="3.75807">
        <ele>647.59997558594</ele>
        <time>2012-09-07T16:51:22Z</time>
      </trkpt>
      <trkpt lat="45.39205" lon="3.75813">
        <ele>647.09997558594</ele>
        <time>2012-09-07T16:51:24Z</time>
      </trkpt>
      <trkpt lat="45.39202" lon="3.75822">
        <ele>647.79998779297</ele>
        <time>2012-09-07T16:51:27Z</time>
      </trkpt>
      <trkpt lat="45.39198" lon="3.75827">
        <ele>648.40002441406</ele>
        <time>2012-09-07T16:51:30Z</time>
      </trkpt>
      <trkpt lat="45.39194" lon="3.75832">
        <ele>648.09997558594</ele>
        <time>2012-09-07T16:51:33Z</time>
      </trkpt>
      <trkpt lat="45.39189" lon="3.75834">
        <ele>647.59997558594</ele>
        <time>2012-09-07T16:51:35Z</time>
      </trkpt>
      <trkpt lat="45.39185" lon="3.75837">
        <ele>649.40002441406</ele>
        <time>2012-09-07T16:51:38Z</time>
      </trkpt>
      <trkpt lat="45.39176" lon="3.75845">
        <ele>650.20001220703</ele>
        <time>2012-09-07T16:51:42Z</time>
      </trkpt>
      <trkpt lat="45.39173" lon="3.75849">
        <ele>650.5</ele>
        <time>2012-09-07T16:51:45Z</time>
      </trkpt>
      <trkpt lat="45.39168" lon="3.75854">
        <ele>651.29998779297</ele>
        <time>2012-09-07T16:51:49Z</time>
      </trkpt>
      <trkpt lat="45.39164" lon="3.75857">
        <ele>652.09997558594</ele>
        <time>2012-09-07T16:51:53Z</time>
      </trkpt>
      <trkpt lat="45.3916" lon="3.7586">
        <ele>652.09997558594</ele>
        <time>2012-09-07T16:51:56Z</time>
      </trkpt>
      <trkpt lat="45.39156" lon="3.75862">
        <ele>652</ele>
        <time>2012-09-07T16:52:00Z</time>
      </trkpt>
      <trkpt lat="45.39151" lon="3.75864">
        <ele>654.40002441406</ele>
        <time>2012-09-07T16:52:05Z</time>
      </trkpt>
      <trkpt lat="45.39147" lon="3.75867">
        <ele>655.59997558594</ele>
        <time>2012-09-07T16:52:08Z</time>
      </trkpt>
      <trkpt lat="45.39143" lon="3.75871">
        <ele>656.70001220703</ele>
        <time>2012-09-07T16:52:12Z</time>
      </trkpt>
      <trkpt lat="45.39138" lon="3.75873">
        <ele>657.40002441406</ele>
        <time>2012-09-07T16:52:17Z</time>
      </trkpt>
      <trkpt lat="45.39133" lon="3.75876">
        <ele>656.5</ele>
        <time>2012-09-07T16:52:23Z</time>
      </trkpt>
      <trkpt lat="45.39129" lon="3.75879">
        <ele>656</ele>
        <time>2012-09-07T16:52:28Z</time>
      </trkpt>
      <trkpt lat="45.39125" lon="3.75882">
        <ele>656.40002441406</ele>
        <time>2012-09-07T16:52:32Z</time>
      </trkpt>
      <trkpt lat="45.3912" lon="3.75883">
        <ele>654.29998779297</ele>
        <time>2012-09-07T16:52:38Z</time>
      </trkpt>
      <trkpt lat="45.39115" lon="3.75886">
        <ele>655.29998779297</ele>
        <time>2012-09-07T16:52:42Z</time>
      </trkpt>
      <trkpt lat="45.39111" lon="3.7589">
        <ele>653.59997558594</ele>
        <time>2012-09-07T16:52:45Z</time>
      </trkpt>
      <trkpt lat="45.39106" lon="3.75894">
        <ele>654.09997558594</ele>
        <time>2012-09-07T16:52:47Z</time>
      </trkpt>
      <trkpt lat="45.39101" lon="3.75897">
        <ele>654.09997558594</ele>
        <time>2012-09-07T16:52:50Z</time>
      </trkpt>
      <trkpt lat="45.39096" lon="3.759">
        <ele>654.5</ele>
        <time>2012-09-07T16:52:53Z</time>
      </trkpt>
      <trkpt lat="45.39091" lon="3.75902">
        <ele>654.09997558594</ele>
        <time>2012-09-07T16:52:55Z</time>
      </trkpt>
      <trkpt lat="45.39087" lon="3.75903">
        <ele>654.70001220703</ele>
        <time>2012-09-07T16:52:58Z</time>
      </trkpt>
      <trkpt lat="45.39082" lon="3.75906">
        <ele>653.09997558594</ele>
        <time>2012-09-07T16:53:01Z</time>
      </trkpt>
      <trkpt lat="45.39077" lon="3.75909">
        <ele>653.70001220703</ele>
        <time>2012-09-07T16:53:03Z</time>
      </trkpt>
      <trkpt lat="45.39072" lon="3.75911">
        <ele>653.29998779297</ele>
        <time>2012-09-07T16:53:06Z</time>
      </trkpt>
      <trkpt lat="45.39066" lon="3.75915">
        <ele>652.09997558594</ele>
        <time>2012-09-07T16:53:09Z</time>
      </trkpt>
      <trkpt lat="45.39061" lon="3.75917">
        <ele>652.79998779297</ele>
        <time>2012-09-07T16:53:12Z</time>
      </trkpt>
      <trkpt lat="45.39056" lon="3.75921">
        <ele>654.09997558594</ele>
        <time>2012-09-07T16:53:15Z</time>
      </trkpt>
      <trkpt lat="45.3905" lon="3.7593">
        <ele>655</ele>
        <time>2012-09-07T16:53:21Z</time>
      </trkpt>
      <trkpt lat="45.39047" lon="3.75936">
        <ele>656.29998779297</ele>
        <time>2012-09-07T16:53:24Z</time>
      </trkpt>
      <trkpt lat="45.39043" lon="3.75942">
        <ele>656.40002441406</ele>
        <time>2012-09-07T16:53:27Z</time>
      </trkpt>
      <trkpt lat="45.39038" lon="3.75947">
        <ele>655.70001220703</ele>
        <time>2012-09-07T16:53:30Z</time>
      </trkpt>
      <trkpt lat="45.39032" lon="3.75949">
        <ele>655.5</ele>
        <time>2012-09-07T16:53:33Z</time>
      </trkpt>
      <trkpt lat="45.39027" lon="3.75947">
        <ele>656</ele>
        <time>2012-09-07T16:53:36Z</time>
      </trkpt>
      <trkpt lat="45.39021" lon="3.75945">
        <ele>656.59997558594</ele>
        <time>2012-09-07T16:53:39Z</time>
      </trkpt>
      <trkpt lat="45.39017" lon="3.75944">
        <ele>656.09997558594</ele>
        <time>2012-09-07T16:53:42Z</time>
      </trkpt>
      <trkpt lat="45.39011" lon="3.75942">
        <ele>656.40002441406</ele>
        <time>2012-09-07T16:53:44Z</time>
      </trkpt>
      <trkpt lat="45.39006" lon="3.75938">
        <ele>659.5</ele>
        <time>2012-09-07T16:53:48Z</time>
      </trkpt>
      <trkpt lat="45.39001" lon="3.75938">
        <ele>660.59997558594</ele>
        <time>2012-09-07T16:53:53Z</time>
      </trkpt>
      <trkpt lat="45.38996" lon="3.7594">
        <ele>660.20001220703</ele>
        <time>2012-09-07T16:53:59Z</time>
      </trkpt>
      <trkpt lat="45.38992" lon="3.75936">
        <ele>660.09997558594</ele>
        <time>2012-09-07T16:54:03Z</time>
      </trkpt>
      <trkpt lat="45.38987" lon="3.75935">
        <ele>660.90002441406</ele>
        <time>2012-09-07T16:54:08Z</time>
      </trkpt>
      <trkpt lat="45.38982" lon="3.75933">
        <ele>661.59997558594</ele>
        <time>2012-09-07T16:54:14Z</time>
      </trkpt>
      <trkpt lat="45.38977" lon="3.75935">
        <ele>661.79998779297</ele>
        <time>2012-09-07T16:54:18Z</time>
      </trkpt>
      <trkpt lat="45.38974" lon="3.7593">
        <ele>660.29998779297</ele>
        <time>2012-09-07T16:54:24Z</time>
      </trkpt>
      <trkpt lat="45.38968" lon="3.75926">
        <ele>659.70001220703</ele>
        <time>2012-09-07T16:54:30Z</time>
      </trkpt>
      <trkpt lat="45.38963" lon="3.75928">
        <ele>659.29998779297</ele>
        <time>2012-09-07T16:54:35Z</time>
      </trkpt>
      <trkpt lat="45.38958" lon="3.75927">
        <ele>659.5</ele>
        <time>2012-09-07T16:54:38Z</time>
      </trkpt>
      <trkpt lat="45.38952" lon="3.75924">
        <ele>659.79998779297</ele>
        <time>2012-09-07T16:54:43Z</time>
      </trkpt>
      <trkpt lat="45.38948" lon="3.75922">
        <ele>661.09997558594</ele>
        <time>2012-09-07T16:54:45Z</time>
      </trkpt>
      <trkpt lat="45.38944" lon="3.7592">
        <ele>661</ele>
        <time>2012-09-07T16:54:48Z</time>
      </trkpt>
      <trkpt lat="45.38939" lon="3.75921">
        <ele>660.79998779297</ele>
        <time>2012-09-07T16:54:50Z</time>
      </trkpt>
      <trkpt lat="45.38934" lon="3.75921">
        <ele>661.09997558594</ele>
        <time>2012-09-07T16:54:53Z</time>
      </trkpt>
      <trkpt lat="45.38929" lon="3.7592">
        <ele>661.20001220703</ele>
        <time>2012-09-07T16:54:56Z</time>
      </trkpt>
      <trkpt lat="45.38924" lon="3.75919">
        <ele>660.09997558594</ele>
        <time>2012-09-07T16:54:59Z</time>
      </trkpt>
      <trkpt lat="45.3892" lon="3.7592">
        <ele>660.29998779297</ele>
        <time>2012-09-07T16:55:02Z</time>
      </trkpt>
      <trkpt lat="45.38915" lon="3.7592">
        <ele>658.29998779297</ele>
        <time>2012-09-07T16:55:05Z</time>
      </trkpt>
      <trkpt lat="45.38909" lon="3.75921">
        <ele>658.09997558594</ele>
        <time>2012-09-07T16:55:08Z</time>
      </trkpt>
      <trkpt lat="45.38903" lon="3.7592">
        <ele>659.29998779297</ele>
        <time>2012-09-07T16:55:11Z</time>
      </trkpt>
      <trkpt lat="45.38898" lon="3.75919">
        <ele>659.59997558594</ele>
        <time>2012-09-07T16:55:14Z</time>
      </trkpt>
      <trkpt lat="45.38893" lon="3.75919">
        <ele>659.79998779297</ele>
        <time>2012-09-07T16:55:17Z</time>
      </trkpt>
      <trkpt lat="45.38886" lon="3.75919">
        <ele>661</ele>
        <time>2012-09-07T16:55:20Z</time>
      </trkpt>
      <trkpt lat="45.38881" lon="3.75919">
        <ele>661.29998779297</ele>
        <time>2012-09-07T16:55:23Z</time>
      </trkpt>
      <trkpt lat="45.38875" lon="3.7592">
        <ele>661</ele>
        <time>2012-09-07T16:55:26Z</time>
      </trkpt>
      <trkpt lat="45.3887" lon="3.75919">
        <ele>661</ele>
        <time>2012-09-07T16:55:29Z</time>
      </trkpt>
      <trkpt lat="45.38864" lon="3.75919">
        <ele>660</ele>
        <time>2012-09-07T16:55:32Z</time>
      </trkpt>
      <trkpt lat="45.38859" lon="3.75921">
        <ele>658.79998779297</ele>
        <time>2012-09-07T16:55:35Z</time>
      </trkpt>
      <trkpt lat="45.38855" lon="3.75922">
        <ele>659.40002441406</ele>
        <time>2012-09-07T16:55:38Z</time>
      </trkpt>
      <trkpt lat="45.3885" lon="3.75921">
        <ele>659.90002441406</ele>
        <time>2012-09-07T16:55:40Z</time>
      </trkpt>
      <trkpt lat="45.38845" lon="3.75922">
        <ele>659.70001220703</ele>
        <time>2012-09-07T16:55:47Z</time>
      </trkpt>
      <trkpt lat="45.38838" lon="3.7592">
        <ele>662.90002441406</ele>
        <time>2012-09-07T16:55:52Z</time>
      </trkpt>
      <trkpt lat="45.38833" lon="3.75917">
        <ele>664.20001220703</ele>
        <time>2012-09-07T16:55:55Z</time>
      </trkpt>
      <trkpt lat="45.38828" lon="3.75914">
        <ele>663.90002441406</ele>
        <time>2012-09-07T16:56:00Z</time>
      </trkpt>
      <trkpt lat="45.38823" lon="3.75915">
        <ele>665</ele>
        <time>2012-09-07T16:56:04Z</time>
      </trkpt>
      <trkpt lat="45.38818" lon="3.75914">
        <ele>665.29998779297</ele>
        <time>2012-09-07T16:56:08Z</time>
      </trkpt>
      <trkpt lat="45.38811" lon="3.75915">
        <ele>664.29998779297</ele>
        <time>2012-09-07T16:56:13Z</time>
      </trkpt>
      <trkpt lat="45.38806" lon="3.75914">
        <ele>660.70001220703</ele>
        <time>2012-09-07T16:56:19Z</time>
      </trkpt>
      <trkpt lat="45.38801" lon="3.75917">
        <ele>660.70001220703</ele>
        <time>2012-09-07T16:56:26Z</time>
      </trkpt>
      <trkpt lat="45.38796" lon="3.75916">
        <ele>661.20001220703</ele>
        <time>2012-09-07T16:56:31Z</time>
      </trkpt>
      <trkpt lat="45.3879" lon="3.75913">
        <ele>661.20001220703</ele>
        <time>2012-09-07T16:56:35Z</time>
      </trkpt>
      <trkpt lat="45.38787" lon="3.7591">
        <ele>660.70001220703</ele>
        <time>2012-09-07T16:56:39Z</time>
      </trkpt>
      <trkpt lat="45.38781" lon="3.75906">
        <ele>662.70001220703</ele>
        <time>2012-09-07T16:56:43Z</time>
      </trkpt>
      <trkpt lat="45.38775" lon="3.75904">
        <ele>664.70001220703</ele>
        <time>2012-09-07T16:56:46Z</time>
      </trkpt>
      <trkpt lat="45.3877" lon="3.75901">
        <ele>665.40002441406</ele>
        <time>2012-09-07T16:56:49Z</time>
      </trkpt>
      <trkpt lat="45.38765" lon="3.75898">
        <ele>665.40002441406</ele>
        <time>2012-09-07T16:56:52Z</time>
      </trkpt>
      <trkpt lat="45.3876" lon="3.75894">
        <ele>664</ele>
        <time>2012-09-07T16:56:55Z</time>
      </trkpt>
      <trkpt lat="45.38756" lon="3.75889">
        <ele>663.79998779297</ele>
        <time>2012-09-07T16:56:58Z</time>
      </trkpt>
      <trkpt lat="45.38752" lon="3.75883">
        <ele>662.70001220703</ele>
        <time>2012-09-07T16:57:01Z</time>
      </trkpt>
      <trkpt lat="45.38744" lon="3.75875">
        <ele>660.09997558594</ele>
        <time>2012-09-07T16:57:06Z</time>
      </trkpt>
      <trkpt lat="45.3874" lon="3.75869">
        <ele>659</ele>
        <time>2012-09-07T16:57:09Z</time>
      </trkpt>
      <trkpt lat="45.38736" lon="3.75862">
        <ele>660.09997558594</ele>
        <time>2012-09-07T16:57:12Z</time>
      </trkpt>
      <trkpt lat="45.38732" lon="3.75857">
        <ele>660.20001220703</ele>
        <time>2012-09-07T16:57:14Z</time>
      </trkpt>
      <trkpt lat="45.38727" lon="3.75851">
        <ele>660.09997558594</ele>
        <time>2012-09-07T16:57:17Z</time>
      </trkpt>
      <trkpt lat="45.38723" lon="3.75847">
        <ele>660.40002441406</ele>
        <time>2012-09-07T16:57:19Z</time>
      </trkpt>
      <trkpt lat="45.38719" lon="3.75842">
        <ele>660.09997558594</ele>
        <time>2012-09-07T16:57:22Z</time>
      </trkpt>
      <trkpt lat="45.3871" lon="3.75832">
        <ele>661.5</ele>
        <time>2012-09-07T16:57:28Z</time>
      </trkpt>
      <trkpt lat="45.38704" lon="3.75826">
        <ele>663.59997558594</ele>
        <time>2012-09-07T16:57:30Z</time>
      </trkpt>
      <trkpt lat="45.38701" lon="3.7582">
        <ele>664</ele>
        <time>2012-09-07T16:57:32Z</time>
      </trkpt>
      <trkpt lat="45.38697" lon="3.75815">
        <ele>661.70001220703</ele>
        <time>2012-09-07T16:57:36Z</time>
      </trkpt>
      <trkpt lat="45.38692" lon="3.75811">
        <ele>662.59997558594</ele>
        <time>2012-09-07T16:57:39Z</time>
      </trkpt>
      <trkpt lat="45.38688" lon="3.75808">
        <ele>660.5</ele>
        <time>2012-09-07T16:57:43Z</time>
      </trkpt>
      <trkpt lat="45.38685" lon="3.75803">
        <ele>658.90002441406</ele>
        <time>2012-09-07T16:57:49Z</time>
      </trkpt>
      <trkpt lat="45.38682" lon="3.75796">
        <ele>657.29998779297</ele>
        <time>2012-09-07T16:57:54Z</time>
      </trkpt>
      <trkpt lat="45.38679" lon="3.75788">
        <ele>658.09997558594</ele>
        <time>2012-09-07T16:57:57Z</time>
      </trkpt>
      <trkpt lat="45.38677" lon="3.75782">
        <ele>660.59997558594</ele>
        <time>2012-09-07T16:58:03Z</time>
      </trkpt>
      <trkpt lat="45.38673" lon="3.75778">
        <ele>660.70001220703</ele>
        <time>2012-09-07T16:58:06Z</time>
      </trkpt>
      <trkpt lat="45.38668" lon="3.75778">
        <ele>658</ele>
        <time>2012-09-07T16:58:12Z</time>
      </trkpt>
      <trkpt lat="45.38666" lon="3.75772">
        <ele>657.20001220703</ele>
        <time>2012-09-07T16:58:15Z</time>
      </trkpt>
      <trkpt lat="45.38662" lon="3.75767">
        <ele>658.79998779297</ele>
        <time>2012-09-07T16:58:17Z</time>
      </trkpt>
      <trkpt lat="45.38658" lon="3.75762">
        <ele>660.59997558594</ele>
        <time>2012-09-07T16:58:23Z</time>
      </trkpt>
      <trkpt lat="45.38653" lon="3.75759">
        <ele>658.29998779297</ele>
        <time>2012-09-07T16:58:28Z</time>
      </trkpt>
      <trkpt lat="45.3865" lon="3.75754">
        <ele>659</ele>
        <time>2012-09-07T16:58:31Z</time>
      </trkpt>
      <trkpt lat="45.38645" lon="3.75751">
        <ele>658.70001220703</ele>
        <time>2012-09-07T16:58:37Z</time>
      </trkpt>
      <trkpt lat="45.38642" lon="3.75747">
        <ele>658.59997558594</ele>
        <time>2012-09-07T16:58:41Z</time>
      </trkpt>
      <trkpt lat="45.38631" lon="3.75734">
        <ele>660.59997558594</ele>
        <time>2012-09-07T16:58:47Z</time>
      </trkpt>
      <trkpt lat="45.38626" lon="3.75729">
        <ele>659.59997558594</ele>
        <time>2012-09-07T16:58:50Z</time>
      </trkpt>
      <trkpt lat="45.38622" lon="3.75721">
        <ele>660.59997558594</ele>
        <time>2012-09-07T16:58:53Z</time>
      </trkpt>
      <trkpt lat="45.38618" lon="3.75716">
        <ele>661</ele>
        <time>2012-09-07T16:58:55Z</time>
      </trkpt>
      <trkpt lat="45.38611" lon="3.75713">
        <ele>660.70001220703</ele>
        <time>2012-09-07T16:58:59Z</time>
      </trkpt>
      <trkpt lat="45.38607" lon="3.75709">
        <ele>659.70001220703</ele>
        <time>2012-09-07T16:59:02Z</time>
      </trkpt>
      <trkpt lat="45.38602" lon="3.75699">
        <ele>660.5</ele>
        <time>2012-09-07T16:59:06Z</time>
      </trkpt>
      <trkpt lat="45.38597" lon="3.75695">
        <ele>655.59997558594</ele>
        <time>2012-09-07T16:59:10Z</time>
      </trkpt>
      <trkpt lat="45.38592" lon="3.75692">
        <ele>652.79998779297</ele>
        <time>2012-09-07T16:59:13Z</time>
      </trkpt>
      <trkpt lat="45.38588" lon="3.75689">
        <ele>653.20001220703</ele>
        <time>2012-09-07T16:59:16Z</time>
      </trkpt>
      <trkpt lat="45.3858" lon="3.75683">
        <ele>653.79998779297</ele>
        <time>2012-09-07T16:59:20Z</time>
      </trkpt>
      <trkpt lat="45.38576" lon="3.75679">
        <ele>653.09997558594</ele>
        <time>2012-09-07T16:59:22Z</time>
      </trkpt>
      <trkpt lat="45.38572" lon="3.75678">
        <ele>652.70001220703</ele>
        <time>2012-09-07T16:59:25Z</time>
      </trkpt>
      <trkpt lat="45.38567" lon="3.75676">
        <ele>654.5</ele>
        <time>2012-09-07T16:59:27Z</time>
      </trkpt>
      <trkpt lat="45.38561" lon="3.75675">
        <ele>656.40002441406</ele>
        <time>2012-09-07T16:59:30Z</time>
      </trkpt>
      <trkpt lat="45.38555" lon="3.75675">
        <ele>656.5</ele>
        <time>2012-09-07T16:59:33Z</time>
      </trkpt>
      <trkpt lat="45.38549" lon="3.75674">
        <ele>655.29998779297</ele>
        <time>2012-09-07T16:59:36Z</time>
      </trkpt>
      <trkpt lat="45.38543" lon="3.75675">
        <ele>655.70001220703</ele>
        <time>2012-09-07T16:59:39Z</time>
      </trkpt>
      <trkpt lat="45.38537" lon="3.75674">
        <ele>655.29998779297</ele>
        <time>2012-09-07T16:59:42Z</time>
      </trkpt>
      <trkpt lat="45.38532" lon="3.75672">
        <ele>655</ele>
        <time>2012-09-07T16:59:46Z</time>
      </trkpt>
      <trkpt lat="45.38527" lon="3.75672">
        <ele>656.40002441406</ele>
        <time>2012-09-07T16:59:52Z</time>
      </trkpt>
      <trkpt lat="45.38523" lon="3.75669">
        <ele>657</ele>
        <time>2012-09-07T16:59:56Z</time>
      </trkpt>
      <trkpt lat="45.38519" lon="3.75665">
        <ele>655.59997558594</ele>
        <time>2012-09-07T17:00:01Z</time>
      </trkpt>
      <trkpt lat="45.38515" lon="3.75659">
        <ele>655.90002441406</ele>
        <time>2012-09-07T17:00:05Z</time>
      </trkpt>
      <trkpt lat="45.38512" lon="3.75651">
        <ele>656.20001220703</ele>
        <time>2012-09-07T17:00:10Z</time>
      </trkpt>
      <trkpt lat="45.38511" lon="3.75644">
        <ele>654.59997558594</ele>
        <time>2012-09-07T17:00:16Z</time>
      </trkpt>
      <trkpt lat="45.38511" lon="3.75637">
        <ele>655.09997558594</ele>
        <time>2012-09-07T17:00:20Z</time>
      </trkpt>
      <trkpt lat="45.3851" lon="3.7563">
        <ele>653.09997558594</ele>
        <time>2012-09-07T17:00:25Z</time>
      </trkpt>
      <trkpt lat="45.38508" lon="3.75623">
        <ele>652</ele>
        <time>2012-09-07T17:00:30Z</time>
      </trkpt>
      <trkpt lat="45.38508" lon="3.75617">
        <ele>653.90002441406</ele>
        <time>2012-09-07T17:00:33Z</time>
      </trkpt>
      <trkpt lat="45.38505" lon="3.7561">
        <ele>655.59997558594</ele>
        <time>2012-09-07T17:00:38Z</time>
      </trkpt>
    </trkseg>
  </trk>
</gpx>